Time;durP1;ratioP1;P1;durP2;ratioP2;P2;SDS_P1;SDS_P2;PMS_P1;PMS_P2;Temp;Humidity;BMP_temperature;BMP_pressure;BME280_temperature;BME280_humidity;BME280_pressure;Samples;Min_cycle;Max_cycle;Signal;HPM_P1;HPM_P2
2023/06/29 00:00:44;;;;;;;3.77;3.47;;;18.70;99.90;;;;;;5945687;24;21116;-78
2023/06/29 00:03:11;;;;;;;6.43;4.03;;;18.70;99.90;;;;;;5953538;24;20560;-77
2023/06/29 00:05:40;;;;;;;5.80;3.67;;;18.70;99.90;;;;;;5948883;24;20503;-77
2023/06/29 00:08:07;;;;;;;3.60;3.30;;;18.70;99.90;;;;;;5933056;24;20485;-78
2023/06/29 00:10:36;;;;;;;5.53;4.10;;;18.60;99.90;;;;;;5951759;24;20473;-77
2023/06/29 00:13:03;;;;;;;4.43;3.90;;;18.60;99.90;;;;;;5955742;24;21361;-77
2023/06/29 00:15:30;;;;;;;4.80;3.70;;;18.50;99.90;;;;;;5953307;24;21165;-77
2023/06/29 00:17:57;;;;;;;5.07;3.90;;;18.50;99.90;;;;;;5949060;24;20481;-78
2023/06/29 00:20:28;;;;;;;4.13;3.70;;;18.50;99.90;;;;;;5950936;24;20813;-78
2023/06/29 00:22:56;;;;;;;4.40;4.00;;;18.40;99.90;;;;;;5948176;24;20433;-77
2023/06/29 00:25:24;;;;;;;4.90;4.40;;;18.50;99.90;;;;;;5942673;24;20439;-77
2023/06/29 00:27:52;;;;;;;5.00;3.90;;;18.50;99.90;;;;;;5936771;24;20462;-77
2023/06/29 00:30:20;;;;;;;5.17;4.67;;;18.40;99.90;;;;;;5945691;24;20454;-78
2023/06/29 00:32:47;;;;;;;5.83;4.77;;;18.40;99.90;;;;;;5946993;24;20522;-77
2023/06/29 00:35:14;;;;;;;4.53;4.17;;;18.30;99.90;;;;;;5952944;24;20478;-78
2023/06/29 00:37:42;;;;;;;3.83;3.53;;;18.30;99.90;;;;;;5936829;24;20459;-77
2023/06/29 00:40:10;;;;;;;4.13;3.60;;;18.30;99.90;;;;;;5942810;23;20959;-77
2023/06/29 00:42:37;;;;;;;5.03;3.70;;;18.20;99.90;;;;;;5943241;24;21491;-77
2023/06/29 00:45:07;;;;;;;4.33;3.70;;;18.20;99.90;;;;;;5951361;24;20449;-77
2023/06/29 00:47:34;;;;;;;4.70;4.30;;;18.20;99.90;;;;;;5934551;24;20788;-77
2023/06/29 00:50:02;;;;;;;5.23;4.67;;;18.10;99.90;;;;;;5954740;24;20918;-77
2023/06/29 00:52:29;;;;;;;4.93;4.07;;;18.00;99.90;;;;;;5939062;23;20532;-78
2023/06/29 00:54:57;;;;;;;4.40;3.90;;;18.00;99.90;;;;;;5955505;24;20445;-77
2023/06/29 00:57:24;;;;;;;4.90;4.50;;;18.00;99.90;;;;;;5936441;24;20517;-77
2023/06/29 00:59:51;;;;;;;4.43;4.03;;;17.90;99.90;;;;;;5951982;24;20525;-78
2023/06/29 01:02:20;;;;;;;5.70;4.30;;;17.80;99.90;;;;;;5949258;24;20448;-77
2023/06/29 01:04:47;;;;;;;5.13;4.67;;;17.70;99.90;;;;;;5951412;24;20518;-78
2023/06/29 01:07:23;;;;;;;4.20;3.80;;;17.70;99.90;;;;;;5955566;24;20565;-78
2023/06/29 01:09:53;;;;;;;5.60;4.63;;;17.60;99.90;;;;;;5935820;24;20447;-78
2023/06/29 01:12:21;;;;;;;5.33;4.40;;;17.60;99.90;;;;;;5944178;24;20443;-78
2023/06/29 01:14:50;;;;;;;4.67;4.13;;;17.60;99.90;;;;;;5952412;24;20525;-78
2023/06/29 01:17:21;;;;;;;6.70;4.17;;;17.60;99.90;;;;;;5939452;24;20475;-78
2023/06/29 01:19:51;;;;;;;4.37;3.97;;;17.60;99.90;;;;;;5948767;24;20458;-78
2023/06/29 01:22:21;;;;;;;5.20;4.20;;;17.50;99.90;;;;;;5947616;24;20470;-78
2023/06/29 01:24:50;;;;;;;4.67;4.23;;;17.50;99.90;;;;;;5944881;24;20512;-78
2023/06/29 01:27:18;;;;;;;4.30;3.90;;;17.50;99.90;;;;;;5943605;24;20576;-78
2023/06/29 01:29:45;;;;;;;4.30;3.90;;;17.40;99.90;;;;;;5951605;24;21009;-78
2023/06/29 01:32:14;;;;;;;5.33;4.83;;;17.40;99.90;;;;;;5948475;24;20465;-78
2023/06/29 01:34:41;;;;;;;4.67;4.27;;;17.40;99.90;;;;;;5938036;24;20539;-78
2023/06/29 01:37:12;;;;;;;4.50;4.17;;;17.30;99.90;;;;;;5945455;24;20495;-78
2023/06/29 01:39:45;;;;;;;5.00;4.50;;;17.20;99.90;;;;;;5953439;24;20502;-77
2023/06/29 01:42:15;;;;;;;4.63;4.23;;;17.20;99.90;;;;;;5958579;24;20459;-78
2023/06/29 01:44:42;;;;;;;6.77;3.80;;;17.20;99.90;;;;;;5954888;24;20514;-78
2023/06/29 01:47:10;;;;;;;4.63;4.20;;;17.10;99.90;;;;;;5950559;24;20463;-78
2023/06/29 01:49:37;;;;;;;4.93;4.40;;;17.10;99.90;;;;;;5956162;24;20470;-77
2023/06/29 01:52:06;;;;;;;4.50;4.10;;;17.10;99.90;;;;;;5953754;24;20505;-78
2023/06/29 01:54:33;;;;;;;5.63;4.50;;;17.00;99.90;;;;;;5946525;24;20471;-78
2023/06/29 01:57:00;;;;;;;4.97;4.57;;;17.00;99.90;;;;;;5954987;23;20477;-77
2023/06/29 01:59:28;;;;;;;4.97;4.50;;;16.90;99.90;;;;;;5957874;24;21004;-77
2023/06/29 02:01:55;;;;;;;7.17;4.47;;;16.90;99.90;;;;;;5943888;24;21002;-78
2023/06/29 02:04:22;;;;;;;4.67;4.20;;;16.80;99.90;;;;;;5941895;24;20805;-77
2023/06/29 02:06:49;;;;;;;4.90;4.30;;;16.80;99.90;;;;;;5948668;24;20449;-79
2023/06/29 02:09:17;;;;;;;5.07;4.60;;;16.80;99.90;;;;;;5936737;24;21314;-77
2023/06/29 02:11:44;;;;;;;5.40;4.33;;;16.80;99.90;;;;;;5952492;24;20469;-78
2023/06/29 02:14:11;;;;;;;5.27;4.93;;;16.70;99.90;;;;;;5953495;24;20465;-78
2023/06/29 02:16:40;;;;;;;5.87;4.63;;;16.70;99.90;;;;;;5955277;24;20496;-78
2023/06/29 02:19:07;;;;;;;5.00;4.50;;;16.60;99.90;;;;;;5947610;23;20527;-78
2023/06/29 02:21:34;;;;;;;4.67;4.20;;;16.60;99.90;;;;;;5938276;24;20510;-78
2023/06/29 02:24:01;;;;;;;4.90;4.50;;;16.50;99.90;;;;;;5938536;24;20468;-78
2023/06/29 02:26:28;;;;;;;5.33;4.90;;;16.50;99.90;;;;;;5955426;24;20467;-78
2023/06/29 02:28:55;;;;;;;4.17;3.87;;;16.50;99.90;;;;;;5947815;24;20535;-77
2023/06/29 02:31:22;;;;;;;5.20;4.70;;;16.50;99.90;;;;;;5954844;24;20464;-77
2023/06/29 02:33:51;;;;;;;6.00;5.03;;;16.40;99.90;;;;;;5959021;24;20438;-77
2023/06/29 02:36:21;;;;;;;4.80;4.30;;;16.40;99.90;;;;;;5937736;24;20462;-78
2023/06/29 02:38:47;;;;;;;4.90;4.50;;;16.40;99.90;;;;;;5939935;24;20434;-78
2023/06/29 02:41:14;;;;;;;4.60;4.20;;;16.20;99.90;;;;;;5954013;24;20809;-78
2023/06/29 02:43:42;;;;;;;7.37;4.87;;;16.30;99.90;;;;;;5943706;24;20570;-78
2023/06/29 02:46:09;;;;;;;5.30;4.90;;;16.20;99.90;;;;;;5947623;24;20534;-77
2023/06/29 02:48:35;;;;;;;4.60;4.30;;;16.20;99.90;;;;;;5943440;24;20438;-77
2023/06/29 02:51:05;;;;;;;6.33;4.67;;;16.10;99.90;;;;;;5955496;24;20958;-77
2023/06/29 02:53:32;;;;;;;4.40;4.10;;;16.10;99.90;;;;;;5939978;24;20946;-78
2023/06/29 02:55:59;;;;;;;4.67;4.37;;;16.10;99.90;;;;;;5952528;24;20435;-78
2023/06/29 02:58:26;;;;;;;4.83;4.43;;;16.00;99.90;;;;;;5958276;24;20936;-78
2023/06/29 03:00:53;;;;;;;5.80;5.20;;;16.00;99.90;;;;;;5956854;24;20929;-78
2023/06/29 03:03:20;;;;;;;5.03;4.63;;;15.90;99.90;;;;;;5949259;24;20579;-78
2023/06/29 03:05:47;;;;;;;5.10;4.60;;;15.90;99.90;;;;;;5944678;24;21279;-78
2023/06/29 03:08:16;;;;;;;4.77;3.90;;;15.90;99.90;;;;;;5945121;24;20466;-78
2023/06/29 03:10:43;;;;;;;4.87;4.43;;;15.80;99.90;;;;;;5948448;24;20453;-78
2023/06/29 03:13:10;;;;;;;5.67;5.20;;;15.80;99.90;;;;;;5955339;24;20530;-78
2023/06/29 03:15:37;;;;;;;4.90;4.30;;;15.70;99.90;;;;;;5953211;24;20884;-78
2023/06/29 03:18:04;;;;;;;4.87;4.50;;;15.70;99.90;;;;;;5945628;24;20450;-78
2023/06/29 03:20:31;;;;;;;3.97;3.67;;;15.70;99.90;;;;;;5944424;24;20564;-78
2023/06/29 03:22:58;;;;;;;5.30;4.90;;;15.70;99.90;;;;;;5954623;24;20869;-78
2023/06/29 03:25:26;;;;;;;5.00;4.30;;;15.70;99.90;;;;;;5950305;24;20449;-78
2023/06/29 03:27:53;;;;;;;5.10;4.70;;;15.70;99.90;;;;;;5953929;23;20454;-78
2023/06/29 03:30:20;;;;;;;5.10;4.70;;;15.70;99.90;;;;;;5955934;24;20469;-77
2023/06/29 03:32:47;;;;;;;5.10;4.60;;;15.70;99.90;;;;;;5952112;24;20452;-78
2023/06/29 03:35:15;;;;;;;5.97;4.70;;;15.70;99.90;;;;;;5947412;24;20453;-78
2023/06/29 03:37:42;;;;;;;4.50;4.13;;;15.80;99.90;;;;;;5944052;23;21060;-78
2023/06/29 03:40:09;;;;;;;5.20;4.70;;;15.80;99.90;;;;;;5947748;24;20878;-78
2023/06/29 03:42:38;;;;;;;5.27;4.60;;;15.80;99.90;;;;;;5945126;24;20442;-77
2023/06/29 03:45:06;;;;;;;5.80;4.80;;;15.80;99.90;;;;;;5941023;24;20518;-77
2023/06/29 03:47:33;;;;;;;4.90;4.50;;;15.80;99.90;;;;;;5936929;24;20474;-77
2023/06/29 03:50:00;;;;;;;5.23;4.83;;;15.80;99.90;;;;;;5952341;24;20447;-77
2023/06/29 03:52:27;;;;;;;5.43;4.60;;;15.70;99.90;;;;;;5942126;24;20438;-77
2023/06/29 03:54:54;;;;;;;5.87;5.33;;;15.60;99.90;;;;;;5942087;24;20438;-76
2023/06/29 03:57:21;;;;;;;5.30;4.83;;;15.60;99.90;;;;;;5941462;24;20530;-77
2023/06/29 03:59:49;;;;;;;5.37;4.87;;;15.60;99.90;;;;;;5937293;24;20946;-76
2023/06/29 04:02:16;;;;;;;5.13;4.73;;;15.50;99.90;;;;;;5942255;24;20461;-77
2023/06/29 04:04:45;;;;;;;5.17;4.40;;;15.50;99.90;;;;;;5945454;24;20486;-77
2023/06/29 04:07:13;;;;;;;5.90;5.37;;;15.40;99.90;;;;;;5911719;24;20461;-77
2023/06/29 04:09:40;;;;;;;5.50;5.00;;;15.50;99.90;;;;;;5932498;24;20438;-77
2023/06/29 04:12:08;;;;;;;5.97;5.47;;;15.40;99.90;;;;;;5921142;24;20516;-77
2023/06/29 04:14:35;;;;;;;5.43;5.00;;;15.40;99.90;;;;;;5922566;24;20885;-77
2023/06/29 04:17:03;;;;;;;6.90;5.30;;;15.40;99.90;;;;;;5930297;24;21573;-76
2023/06/29 04:19:49;;;;;;;5.80;5.30;;;15.30;99.90;;;;;;5948111;24;20572;-75
2023/06/29 04:22:16;;;;;;;5.73;5.23;;;15.40;99.90;;;;;;5944682;24;20463;-74
2023/06/29 04:24:43;;;;;;;5.40;5.00;;;15.40;99.90;;;;;;5938897;24;20450;-74
2023/06/29 04:27:11;;;;;;;5.17;4.77;;;15.40;99.90;;;;;;5947685;24;20497;-73
2023/06/29 04:29:38;;;;;;;5.53;5.03;;;15.50;99.90;;;;;;5931260;24;20474;-73
2023/06/29 04:32:06;;;;;;;5.23;4.80;;;15.50;99.90;;;;;;5953765;24;20448;-74
2023/06/29 04:34:33;;;;;;;5.37;5.07;;;15.60;99.90;;;;;;5943201;24;20529;-71
2023/06/29 04:37:02;;;;;;;5.30;4.80;;;15.60;99.90;;;;;;5950887;24;20609;-72
2023/06/29 04:39:29;;;;;;;5.40;4.90;;;15.60;99.90;;;;;;5941975;24;20454;-78
2023/06/29 04:42:01;;;;;;;7.90;5.77;;;15.70;99.90;;;;;;5943187;24;20541;-79
2023/06/29 04:44:31;;;;;;;7.00;5.70;;;15.70;99.90;;;;;;5939706;24;20438;-79
2023/06/29 04:47:00;;;;;;;6.00;5.40;;;15.70;99.90;;;;;;5918511;24;20492;-79
2023/06/29 04:49:32;;;;;;;5.90;5.40;;;15.80;99.90;;;;;;5922323;24;20450;-79
2023/06/29 04:52:00;;;;;;;6.43;5.90;;;15.80;99.90;;;;;;5933175;24;20477;-79
2023/06/29 04:54:52;;;;;;;6.43;5.83;;;15.80;99.90;;;;;;5932778;24;20436;-80
2023/06/29 04:57:20;;;;;;;7.07;6.57;;;15.90;99.90;;;;;;5930892;24;20558;-74
2023/06/29 04:59:47;;;;;;;6.77;5.97;;;16.00;99.90;;;;;;5924368;24;20514;-75
2023/06/29 05:02:14;;;;;;;6.93;6.33;;;16.10;99.90;;;;;;5929891;24;20473;-75
2023/06/29 05:04:42;;;;;;;6.70;6.20;;;16.20;99.90;;;;;;5933147;24;20438;-75
2023/06/29 05:07:10;;;;;;;6.63;6.13;;;16.30;99.90;;;;;;5929440;24;20466;-76
2023/06/29 05:09:37;;;;;;;6.70;6.10;;;16.40;99.90;;;;;;5931055;24;20450;-74
2023/06/29 05:12:04;;;;;;;6.40;5.90;;;16.50;99.90;;;;;;5941489;24;20447;-75
2023/06/29 05:14:31;;;;;;;6.60;6.00;;;16.60;99.90;;;;;;5950620;24;20466;-75
2023/06/29 05:16:59;;;;;;;6.80;6.30;;;16.70;99.90;;;;;;5948790;24;20525;-75
2023/06/29 05:19:26;;;;;;;6.90;6.40;;;16.80;99.90;;;;;;5944669;24;20453;-76
2023/06/29 05:21:54;;;;;;;6.63;6.13;;;16.90;99.90;;;;;;5923730;24;20519;-76
2023/06/29 05:24:22;;;;;;;7.30;6.70;;;17.00;99.90;;;;;;5944079;24;20434;-76
2023/06/29 05:26:49;;;;;;;6.47;5.93;;;17.10;99.90;;;;;;5934713;24;20463;-76
2023/06/29 05:29:16;;;;;;;6.23;5.73;;;17.20;99.90;;;;;;5939063;24;22188;-74
2023/06/29 05:31:43;;;;;;;8.27;6.60;;;17.30;99.90;;;;;;5937373;24;20439;-75
2023/06/29 05:34:11;;;;;;;6.90;6.30;;;17.30;99.90;;;;;;5941596;24;20439;-75
2023/06/29 05:36:38;;;;;;;6.47;5.87;;;17.40;99.90;;;;;;5948519;24;20458;-76
2023/06/29 05:39:06;;;;;;;6.57;6.03;;;17.50;99.90;;;;;;5951429;24;20489;-76
2023/06/29 05:41:34;;;;;;;6.20;5.67;;;17.60;99.90;;;;;;5934955;24;20466;-76
2023/06/29 05:44:01;;;;;;;6.77;6.17;;;17.70;99.90;;;;;;5942821;24;20443;-74
2023/06/29 05:46:28;;;;;;;7.60;6.53;;;17.80;99.90;;;;;;5945327;24;20473;-75
2023/06/29 05:48:55;;;;;;;5.70;5.30;;;17.80;99.90;;;;;;5941697;24;20493;-75
2023/06/29 05:51:22;;;;;;;6.10;5.50;;;17.90;99.90;;;;;;5951059;24;20440;-76
2023/06/29 05:53:49;;;;;;;7.17;5.50;;;18.10;99.90;;;;;;5954557;24;20455;-76
2023/06/29 05:56:18;;;;;;;7.07;6.20;;;18.20;99.90;;;;;;5941748;24;20469;-76
2023/06/29 05:58:46;;;;;;;5.90;5.40;;;18.30;99.90;;;;;;5950199;23;20439;-74
2023/06/29 06:01:13;;;;;;;5.83;5.33;;;18.30;99.90;;;;;;5951217;24;20474;-75
2023/06/29 06:03:41;;;;;;;6.80;6.20;;;18.40;99.90;;;;;;5953980;24;20443;-74
2023/06/29 06:06:08;;;;;;;7.30;5.90;;;18.60;99.90;;;;;;5953143;24;20865;-76
2023/06/29 06:08:35;;;;;;;6.50;5.67;;;18.60;99.90;;;;;;5949308;24;20537;-75
2023/06/29 06:11:02;;;;;;;5.47;4.90;;;18.70;99.90;;;;;;5949996;24;20455;-75
2023/06/29 06:13:31;;;;;;;6.20;5.70;;;18.80;99.90;;;;;;5941594;24;20438;-74
2023/06/29 06:15:58;;;;;;;5.70;5.20;;;18.90;99.90;;;;;;5944826;24;20487;-75
2023/06/29 06:18:25;;;;;;;6.50;5.03;;;19.10;99.90;;;;;;5949905;24;21023;-75
2023/06/29 06:20:52;;;;;;;5.57;5.03;;;19.20;99.90;;;;;;5934962;24;20440;-75
2023/06/29 06:23:20;;;;;;;5.20;4.73;;;19.30;99.90;;;;;;5944868;24;20760;-75
2023/06/29 06:25:47;;;;;;;4.80;4.40;;;19.30;99.90;;;;;;5936756;24;20472;-75
2023/06/29 06:28:14;;;;;;;4.70;4.30;;;19.50;99.90;;;;;;5931491;24;20447;-75
2023/06/29 06:30:43;;;;;;;5.03;4.20;;;19.60;99.90;;;;;;5948375;23;20529;-75
2023/06/29 06:33:10;;;;;;;5.77;4.10;;;19.80;99.90;;;;;;5950108;24;20527;-75
2023/06/29 06:35:37;;;;;;;5.00;4.43;;;19.90;99.90;;;;;;5958113;24;20443;-75
2023/06/29 06:38:04;;;;;;;5.07;4.67;;;20.00;99.90;;;;;;5952599;24;20514;-75
2023/06/29 06:40:31;;;;;;;4.97;4.57;;;20.10;99.90;;;;;;5948823;24;20447;-76
2023/06/29 06:42:58;;;;;;;4.70;4.10;;;20.20;99.90;;;;;;5945510;24;20471;-75
2023/06/29 06:45:25;;;;;;;6.00;5.00;;;20.30;99.90;;;;;;5947648;23;20923;-75
2023/06/29 06:47:54;;;;;;;6.17;5.57;;;20.30;99.90;;;;;;5953454;23;20451;-75
2023/06/29 06:50:21;;;;;;;8.47;5.03;;;20.40;99.90;;;;;;5955002;24;20444;-75
2023/06/29 06:52:48;;;;;;;5.73;5.27;;;20.50;99.90;;;;;;5950815;24;20446;-76
2023/06/29 06:55:15;;;;;;;5.87;5.30;;;20.30;99.90;;;;;;5950373;24;20547;-75
2023/06/29 06:57:42;;;;;;;4.70;4.30;;;20.50;99.90;;;;;;5947077;24;20983;-75
2023/06/29 07:00:13;;;;;;;4.80;4.33;;;20.60;99.90;;;;;;5939783;24;20452;-75
2023/06/29 07:02:40;;;;;;;5.27;4.80;;;20.80;99.90;;;;;;5934775;24;20472;-76
2023/06/29 07:05:10;;;;;;;5.10;4.30;;;20.90;99.90;;;;;;5936100;23;20465;-74
2023/06/29 07:07:37;;;;;;;5.20;4.13;;;21.00;99.90;;;;;;5951932;24;20461;-74
2023/06/29 07:10:05;;;;;;;5.10;4.33;;;21.00;99.90;;;;;;5952893;24;20435;-75
2023/06/29 07:12:32;;;;;;;4.13;3.83;;;21.10;99.90;;;;;;5951392;24;20450;-76
2023/06/29 07:14:59;;;;;;;4.10;3.70;;;21.30;99.90;;;;;;5946428;24;23493;-75
2023/06/29 07:17:27;;;;;;;4.37;4.07;;;21.50;99.90;;;;;;5916722;24;20505;-75
2023/06/29 07:19:54;;;;;;;6.50;4.27;;;21.60;99.90;;;;;;5929773;24;20442;-76
2023/06/29 07:22:23;;;;;;;3.93;3.53;;;21.80;99.90;;;;;;5941680;24;20466;-76
2023/06/29 07:24:50;;;;;;;5.40;4.10;;;22.10;99.90;;;;;;5953702;24;20471;-76
2023/06/29 07:27:17;;;;;;;4.40;4.00;;;22.30;99.90;;;;;;5943734;24;20901;-76
2023/06/29 07:29:46;;;;;;;4.97;3.80;;;22.50;99.90;;;;;;5951452;24;20434;-76
2023/06/29 07:32:13;;;;;;;4.10;3.70;;;22.60;99.90;;;;;;5952772;24;20475;-76
2023/06/29 07:34:40;;;;;;;4.03;3.60;;;22.60;99.90;;;;;;5951996;24;20472;-76
2023/06/29 07:37:08;;;;;;;5.30;3.63;;;22.80;99.90;;;;;;5950111;24;20459;-76
2023/06/29 07:39:36;;;;;;;3.50;3.20;;;22.70;99.90;;;;;;5945073;24;20976;-76
2023/06/29 07:42:04;;;;;;;3.60;3.30;;;22.80;99.90;;;;;;5945863;24;20502;-76
2023/06/29 07:44:31;;;;;;;5.20;3.80;;;22.80;99.90;;;;;;5949515;24;20520;-76
2023/06/29 07:46:59;;;;;;;3.70;3.40;;;22.90;99.90;;;;;;5948134;24;20589;-76
2023/06/29 07:49:26;;;;;;;5.00;3.70;;;23.00;99.90;;;;;;5953301;24;20600;-76
2023/06/29 07:51:53;;;;;;;5.13;3.83;;;23.20;99.90;;;;;;5948969;24;20468;-76
2023/06/29 07:54:20;;;;;;;3.93;3.63;;;23.40;99.90;;;;;;5950127;24;20455;-76
2023/06/29 07:56:48;;;;;;;3.73;3.43;;;23.50;99.90;;;;;;5943602;24;21350;-76
2023/06/29 07:59:15;;;;;;;3.90;3.40;;;23.60;99.90;;;;;;5938322;24;20447;-76
2023/06/29 08:01:42;;;;;;;3.67;3.37;;;23.80;99.90;;;;;;5945918;24;20496;-77
2023/06/29 08:04:09;;;;;;;3.80;3.50;;;24.00;99.90;;;;;;5950918;24;20469;-76
2023/06/29 08:06:41;;;;;;;5.20;3.60;;;24.00;99.90;;;;;;5951874;24;20885;-76
2023/06/29 08:09:09;;;;;;;3.60;3.30;;;24.00;99.90;;;;;;5942455;24;20451;-76
2023/06/29 08:11:36;;;;;;;4.20;3.00;;;24.10;99.90;;;;;;5943786;24;20795;-76
2023/06/29 08:14:04;;;;;;;4.50;3.33;;;24.20;99.70;;;;;;5950107;24;20484;-76
2023/06/29 08:16:32;;;;;;;3.40;3.10;;;24.30;99.40;;;;;;5941020;24;20494;-76
2023/06/29 08:19:00;;;;;;;3.73;2.77;;;24.40;98.90;;;;;;5940020;23;20442;-76
2023/06/29 08:21:27;;;;;;;3.10;2.90;;;24.50;98.30;;;;;;5929766;24;20939;-76
2023/06/29 08:23:54;;;;;;;3.87;3.47;;;24.50;97.90;;;;;;5949632;24;20945;-76
2023/06/29 08:26:22;;;;;;;5.73;2.97;;;24.70;98.40;;;;;;5943916;24;20584;-76
2023/06/29 08:28:49;;;;;;;3.50;3.17;;;24.90;98.60;;;;;;5938372;24;21129;-77
2023/06/29 08:31:19;;;;;;;4.90;3.03;;;25.00;97.20;;;;;;5943400;24;20453;-75
2023/06/29 08:33:46;;;;;;;3.77;3.40;;;25.20;96.70;;;;;;5927324;24;20449;-76
2023/06/29 08:36:13;;;;;;;3.33;3.03;;;25.40;96.00;;;;;;5932314;24;20997;-76
2023/06/29 08:38:40;;;;;;;3.03;2.67;;;25.40;95.30;;;;;;5936988;24;20483;-77
2023/06/29 08:41:07;;;;;;;5.27;2.60;;;25.50;94.60;;;;;;5935680;24;20443;-76
2023/06/29 08:43:34;;;;;;;4.43;2.80;;;25.50;94.60;;;;;;5948961;24;20475;-76
2023/06/29 08:46:03;;;;;;;4.00;3.27;;;25.40;95.30;;;;;;5952708;24;20474;-76
2023/06/29 08:48:33;;;;;;;4.07;3.70;;;25.30;95.20;;;;;;5952538;23;20512;-76
2023/06/29 08:51:03;;;;;;;3.30;3.00;;;25.30;94.80;;;;;;5946137;24;20442;-76
2023/06/29 08:53:31;;;;;;;3.57;2.73;;;25.30;95.20;;;;;;5946714;24;20798;-75
2023/06/29 08:55:58;;;;;;;3.10;2.80;;;25.40;95.20;;;;;;5945309;24;20488;-76
2023/06/29 08:58:26;;;;;;;3.43;2.47;;;25.60;95.00;;;;;;5948079;24;20518;-76
2023/06/29 09:00:55;;;;;;;2.83;2.43;;;25.70;94.10;;;;;;5950638;24;20431;-76
2023/06/29 09:03:24;;;;;;;4.83;2.70;;;26.00;92.50;;;;;;5955040;24;20466;-76
2023/06/29 09:05:54;;;;;;;4.60;2.50;;;26.00;91.90;;;;;;5946187;24;20529;-76
2023/06/29 09:08:23;;;;;;;3.10;2.77;;;26.10;91.30;;;;;;5946200;24;20924;-77
2023/06/29 09:10:50;;;;;;;3.70;2.80;;;26.00;91.30;;;;;;5950403;24;20439;-76
2023/06/29 09:13:18;;;;;;;4.50;2.60;;;26.10;91.40;;;;;;5950082;24;20431;-76
2023/06/29 09:15:46;;;;;;;2.67;2.40;;;26.10;90.60;;;;;;5954275;24;20828;-76
2023/06/29 09:18:13;;;;;;;3.37;2.80;;;26.30;90.90;;;;;;5947987;24;20439;-76
2023/06/29 09:20:40;;;;;;;3.23;2.40;;;26.60;90.70;;;;;;5950064;23;20438;-75
2023/06/29 09:23:09;;;;;;;3.00;2.37;;;26.70;89.70;;;;;;5949879;24;20470;-76
2023/06/29 09:25:39;;;;;;;4.93;3.20;;;26.80;87.70;;;;;;5940883;24;20883;-76
2023/06/29 09:28:07;;;;;;;3.00;2.10;;;26.90;86.80;;;;;;5937564;24;20472;-79
2023/06/29 09:30:37;;;;;;;2.73;2.53;;;27.10;87.50;;;;;;5940006;24;20534;-83
2023/06/29 09:33:07;;;;;;;3.03;2.40;;;27.00;87.60;;;;;;5948625;24;20443;-77
2023/06/29 09:35:38;;;;;;;3.97;2.83;;;26.90;87.50;;;;;;5950823;24;20473;-76
2023/06/29 09:38:05;;;;;;;2.60;2.27;;;26.90;88.60;;;;;;5939630;24;20451;-76
2023/06/29 09:40:47;;;;;;;3.17;2.50;;;27.00;84.40;;;;;;5934316;24;20510;-77
2023/06/29 09:43:17;;;;;;;2.00;1.90;;;26.80;82.80;;;;;;5938525;24;20498;-76
2023/06/29 09:45:45;;;;;;;2.90;2.37;;;26.80;83.40;;;;;;5949614;24;20467;-75
2023/06/29 09:48:13;;;;;;;3.10;2.53;;;27.00;83.60;;;;;;5931144;24;20973;-76
2023/06/29 09:50:48;;;;;;;6.27;2.60;;;27.40;84.80;;;;;;5929040;23;20453;-76
2023/06/29 09:53:15;;;;;;;2.70;2.50;;;27.40;84.20;;;;;;5942634;23;20442;-76
2023/06/29 09:55:44;;;;;;;3.80;2.27;;;27.70;82.70;;;;;;5946269;24;20515;-75
2023/06/29 09:58:13;;;;;;;4.23;2.40;;;27.70;83.30;;;;;;5943699;24;20470;-75
2023/06/29 10:00:41;;;;;;;2.70;2.30;;;27.90;83.20;;;;;;5937562;24;20447;-75
2023/06/29 10:03:08;;;;;;;4.40;2.17;;;28.20;81.40;;;;;;5930937;24;20874;-75
2023/06/29 10:05:35;;;;;;;2.40;2.20;;;28.50;79.60;;;;;;5933679;24;20464;-76
2023/06/29 10:08:07;;;;;;;2.43;2.23;;;28.40;80.00;;;;;;5953179;24;20461;-76
2023/06/29 10:10:35;;;;;;;3.77;2.47;;;28.50;79.50;;;;;;5926449;23;20990;-76
2023/06/29 10:13:07;;;;;;;2.93;2.63;;;28.40;80.00;;;;;;5941244;23;20960;-76
2023/06/29 10:15:36;;;;;;;2.80;2.40;;;28.20;78.60;;;;;;5945963;24;20477;-76
2023/06/29 10:18:10;;;;;;;2.97;2.40;;;28.20;78.80;;;;;;5935011;24;20472;-75
2023/06/29 10:20:41;;;;;;;3.00;2.70;;;28.40;79.10;;;;;;5936150;23;20798;-75
2023/06/29 10:23:09;;;;;;;2.90;2.60;;;28.20;80.10;;;;;;5951356;24;20479;-75
2023/06/29 10:25:40;;;;;;;2.87;2.50;;;28.00;78.20;;;;;;5939525;24;20541;-75
2023/06/29 10:28:10;;;;;;;3.50;2.60;;;27.70;78.20;;;;;;5936846;24;20944;-75
2023/06/29 10:30:46;;;;;;;2.80;2.40;;;27.70;78.80;;;;;;5946088;24;25164;-75
2023/06/29 10:33:15;;;;;;;3.63;2.50;;;28.10;80.60;;;;;;5934457;24;21508;-76
2023/06/29 10:35:54;;;;;;;2.20;1.97;;;28.70;77.70;;;;;;5937060;24;21034;-75
2023/06/29 10:38:28;;;;;;;2.90;2.70;;;29.10;74.50;;;;;;5933133;24;20533;-76
2023/06/29 10:40:55;;;;;;;2.73;2.30;;;29.50;74.20;;;;;;5931347;24;20795;-70
2023/06/29 10:43:26;;;;;;;2.90;2.50;;;30.20;72.60;;;;;;5935926;24;20470;-76
2023/06/29 10:45:53;;;;;;;4.10;2.30;;;30.60;69.40;;;;;;5934509;24;20994;-75
2023/06/29 10:48:21;;;;;;;4.77;3.00;;;31.10;70.30;;;;;;5944524;23;20513;-77
2023/06/29 10:50:50;;;;;;;4.10;2.87;;;31.10;69.10;;;;;;5936441;24;20535;-77
2023/06/29 10:53:18;;;;;;;4.17;2.80;;;31.40;68.50;;;;;;5948067;24;20439;-76
2023/06/29 10:55:52;;;;;;;3.13;2.83;;;30.90;67.90;;;;;;5944563;24;20533;-77
2023/06/29 10:58:21;;;;;;;2.90;2.60;;;30.60;68.00;;;;;;5938929;24;20887;-76
2023/06/29 11:00:52;;;;;;;2.63;2.40;;;30.40;70.40;;;;;;5935959;24;20478;-75
2023/06/29 11:03:20;;;;;;;4.93;2.80;;;30.50;70.30;;;;;;5942946;24;20471;-78
2023/06/29 11:05:51;;;;;;;4.47;2.57;;;30.50;69.30;;;;;;5940032;24;20613;-78
2023/06/29 11:08:20;;;;;;;3.10;2.80;;;30.60;68.70;;;;;;5940790;24;20447;-78
2023/06/29 11:10:48;;;;;;;4.43;2.80;;;30.20;68.50;;;;;;5946871;24;20942;-76
2023/06/29 11:13:15;;;;;;;3.37;3.07;;;30.00;70.40;;;;;;5944228;24;20463;-76
2023/06/29 11:15:42;;;;;;;2.80;2.53;;;29.90;71.20;;;;;;5933311;24;20549;-76
2023/06/29 11:18:10;;;;;;;2.97;2.70;;;30.10;71.50;;;;;;5933300;24;20450;-76
2023/06/29 11:20:39;;;;;;;3.57;3.13;;;30.10;68.50;;;;;;5944241;24;20803;-75
2023/06/29 11:23:08;;;;;;;3.77;3.37;;;30.50;69.10;;;;;;5945863;24;20466;-75
2023/06/29 11:25:36;;;;;;;3.63;3.33;;;30.70;68.70;;;;;;5951921;24;20560;-78
2023/06/29 11:28:04;;;;;;;4.03;3.63;;;31.20;67.30;;;;;;5950660;23;20450;-76
2023/06/29 11:30:31;;;;;;;3.60;3.30;;;31.50;67.80;;;;;;5935502;24;20437;-77
2023/06/29 11:33:00;;;;;;;3.83;3.53;;;31.70;67.70;;;;;;5933152;24;21974;-76
2023/06/29 11:35:31;;;;;;;4.77;3.70;;;32.30;65.30;;;;;;5945555;24;20462;-76
2023/06/29 11:38:00;;;;;;;4.70;3.60;;;33.00;63.60;;;;;;5931878;24;20964;-76
2023/06/29 11:40:28;;;;;;;3.70;3.27;;;33.40;62.80;;;;;;5943449;24;21320;-76
2023/06/29 11:42:55;;;;;;;3.83;3.47;;;33.90;60.20;;;;;;5940705;24;20996;-76
2023/06/29 11:45:23;;;;;;;3.13;2.90;;;34.00;61.80;;;;;;5952880;24;21487;-77
2023/06/29 11:47:57;;;;;;;3.80;3.50;;;34.40;61.00;;;;;;5948875;24;20462;-76
2023/06/29 11:50:24;;;;;;;3.50;3.20;;;35.00;57.70;;;;;;5947572;24;20846;-76
2023/06/29 11:52:53;;;;;;;3.63;3.33;;;35.20;57.80;;;;;;5943128;24;20973;-77
2023/06/29 11:55:20;;;;;;;7.80;3.93;;;35.50;56.90;;;;;;5939756;24;20546;-76
2023/06/29 11:57:52;;;;;;;3.50;3.20;;;34.90;56.20;;;;;;5937896;24;21607;-77
2023/06/29 12:00:33;;;;;;;4.43;4.00;;;34.10;57.60;;;;;;5942207;24;20465;-76
2023/06/29 12:03:08;;;;;;;3.57;3.27;;;33.70;58.10;;;;;;5927278;24;21665;-74
2023/06/29 12:05:40;;;;;;;3.67;3.37;;;33.10;58.60;;;;;;5947986;24;20465;-75
2023/06/29 12:08:09;;;;;;;3.50;3.23;;;32.50;60.00;;;;;;5946382;24;20449;-75
2023/06/29 12:10:39;;;;;;;3.60;3.30;;;32.10;61.20;;;;;;5949996;24;20506;-74
2023/06/29 12:13:10;;;;;;;3.60;3.17;;;31.60;61.30;;;;;;5927228;24;20456;-74
2023/06/29 12:15:38;;;;;;;4.10;3.33;;;31.30;62.00;;;;;;5938104;24;20466;-74
2023/06/29 12:18:11;;;;;;;3.60;3.30;;;30.90;63.30;;;;;;5946927;24;20615;-74
2023/06/29 12:20:43;;;;;;;4.17;3.10;;;30.40;63.10;;;;;;5943219;24;20521;-76
2023/06/29 12:23:13;;;;;;;4.40;3.10;;;30.30;63.70;;;;;;5954132;24;20474;-74
2023/06/29 12:25:45;;;;;;;4.10;3.30;;;30.20;64.70;;;;;;5948658;24;20557;-72
2023/06/29 12:28:12;;;;;;;3.87;3.53;;;29.60;68.20;;;;;;5920933;24;20442;-75
2023/06/29 12:30:40;;;;;;;5.60;3.80;;;28.90;72.70;;;;;;5934972;24;20596;-74
2023/06/29 12:33:07;;;;;;;6.20;3.73;;;28.30;72.10;;;;;;5925944;24;20450;-75
2023/06/29 12:35:35;;;;;;;5.03;3.70;;;28.00;74.70;;;;;;5936984;24;20469;-77
2023/06/29 12:38:02;;;;;;;3.20;2.90;;;28.10;74.40;;;;;;5933952;24;20470;-78
2023/06/29 12:40:31;;;;;;;3.03;2.70;;;28.30;72.90;;;;;;5937248;23;20442;-78
2023/06/29 12:42:59;;;;;;;4.77;3.10;;;28.70;73.50;;;;;;5945220;24;20446;-80
2023/06/29 12:45:26;;;;;;;5.93;3.60;;;29.20;73.30;;;;;;5934697;24;21430;-79
2023/06/29 12:47:53;;;;;;;3.83;3.53;;;29.50;72.60;;;;;;5938525;24;20443;-76
2023/06/29 12:50:20;;;;;;;3.80;3.13;;;29.80;71.80;;;;;;5932223;24;20450;-77
2023/06/29 12:52:48;;;;;;;4.83;3.87;;;29.60;70.30;;;;;;5941149;24;22293;-79